LYBE/BEG METAR and TAF weather

Enter ICAO airport designator
Station Type Date Time Source
LYBE METAR 2018/12/11 17:30 UTC NOAA

LYBE 111730Z 25004KT 9999 FEW010 BKN040 02/01 Q1018 NOSIG


Station Type Date Time Source
LYBE Decoded METAR 2018/12/11 17:30 UTC NOAA

Beograd / Surcin, Serbia and Montenegro (LYBE) 44-49N 020-17E 99M
Dec 11, 2018 - 12:30 PM EST / 2018.12.11 1730 UTC
Wind: from the WSW (250 degrees) at 5 MPH (4 KT):0
Visibility: greater than 7 mile(s):0
Sky conditions: mostly cloudy
Temperature: 35 F (2 C)
Windchill: 30 F (-1 C):1
Dew Point: 33 F (1 C)
Relative Humidity: 93%
Pressure (altimeter): 30.06 in. Hg (1018 hPa)
ob: LYBE 111730Z 25004KT 9999 FEW010 BKN040 02/01 Q1018 NOSIG
cycle: 17

Station Type Date Time Source
LYBE TAF 2018/12/11 18:21 UTC NOAA

TAF TAF LYBE 111700Z 1118/1218 30006KT 9999 SCT015 BKN027 TX05/1212Z TN00/1204Z
BECMG 1120/1122 5000 -RA
TEMPO 1122/1210 3000 -SN BKN013 BKN027
BECMG 1210/1212 6000 NSW
TEMPO 1212/1216 4000 -SHRASN SCT013 SCT023TCU SCT027


Example: see airport list